createdAt,value
2023-09-27T00:00:06.589Z,479.72
2023-09-27T00:00:17.568Z,479.72
2023-09-27T00:00:28.603Z,479.74
2023-09-27T00:00:40.588Z,479.75
2023-09-27T00:00:51.580Z,479.75
2023-09-27T00:01:02.574Z,479.77
2023-09-27T00:01:13.636Z,479.80
2023-09-27T00:01:24.602Z,479.82
2023-09-27T00:01:35.586Z,479.84
2023-09-27T00:01:46.648Z,479.83
2023-09-27T00:01:57.699Z,479.86
2023-09-27T00:02:08.598Z,479.88
2023-09-27T00:02:19.720Z,479.88
2023-09-27T00:02:31.670Z,479.91
2023-09-27T00:02:43.707Z,479.95
2023-09-27T00:02:54.653Z,479.94
2023-09-27T00:03:06.611Z,479.97
2023-09-27T00:03:17.694Z,479.99
2023-09-27T00:03:28.612Z,479.98
2023-09-27T00:03:39.584Z,480.01
2023-09-27T00:03:51.581Z,480.06
2023-09-27T00:04:03.577Z,480.08
2023-09-27T00:04:15.594Z,480.09
2023-09-27T00:04:27.586Z,480.11
2023-09-27T00:04:39.648Z,480.11
2023-09-27T00:04:50.650Z,480.12
2023-09-27T00:05:02.708Z,480.15
2023-09-27T00:05:13.743Z,480.20
2023-09-27T00:05:24.641Z,480.25
2023-09-27T00:05:35.661Z,480.32
2023-09-27T00:05:47.732Z,480.35
2023-09-27T00:05:59.683Z,480.41
2023-09-27T00:06:10.603Z,480.46
2023-09-27T00:06:21.577Z,480.51
2023-09-27T00:06:32.585Z,480.57
2023-09-27T00:06:43.573Z,480.60
2023-09-27T00:06:55.561Z,480.69
2023-09-27T00:07:06.612Z,480.73
2023-09-27T00:07:18.621Z,480.82
2023-09-27T00:07:30.614Z,480.88
2023-09-27T00:07:42.722Z,480.94
2023-09-27T00:07:53.622Z,480.97
2023-09-27T00:08:05.658Z,481.08
2023-09-27T00:08:16.580Z,481.14
2023-09-27T00:08:27.624Z,481.19
2023-09-27T00:08:39.572Z,481.23
2023-09-27T00:08:50.562Z,481.28
2023-09-27T00:09:01.582Z,481.31
2023-09-27T00:09:13.571Z,481.38
2023-09-27T00:09:24.565Z,481.40
2023-09-27T00:09:35.548Z,481.39
2023-09-27T00:09:46.560Z,481.42
2023-09-27T00:09:57.563Z,481.40
2023-09-27T00:10:08.556Z,481.40
2023-09-27T00:10:19.528Z,481.42
2023-09-27T00:10:30.544Z,481.42
2023-09-27T00:10:41.630Z,481.41
2023-09-27T00:10:53.612Z,481.40
2023-09-27T00:11:05.636Z,481.36
2023-09-27T00:11:16.608Z,481.34
2023-09-27T00:11:27.680Z,481.32
2023-09-27T00:11:39.541Z,481.26
2023-09-27T00:11:50.636Z,481.22
2023-09-27T00:12:01.599Z,481.22
2023-09-27T00:12:13.578Z,481.19
2023-09-27T00:12:24.572Z,481.13
2023-09-27T00:12:35.576Z,481.15
2023-09-27T00:12:46.587Z,481.09
2023-09-27T00:12:58.585Z,481.07
2023-09-27T00:13:09.570Z,481.04
2023-09-27T00:13:20.566Z,481.02
2023-09-27T00:13:31.560Z,480.97
2023-09-27T00:13:42.575Z,480.95
2023-09-27T00:13:53.604Z,480.94
2023-09-27T00:14:05.576Z,480.90
2023-09-27T00:14:17.625Z,480.88
2023-09-27T00:14:28.651Z,480.85
2023-09-27T00:14:40.619Z,480.79
2023-09-27T00:14:52.568Z,480.78
2023-09-27T00:15:03.560Z,480.73
2023-09-27T00:15:14.591Z,480.70
2023-09-27T00:15:26.573Z,480.63
2023-09-27T00:15:37.579Z,480.61
2023-09-27T00:15:48.581Z,480.61
2023-09-27T00:15:59.610Z,480.52
2023-09-27T00:16:10.603Z,480.47
2023-09-27T00:16:22.632Z,480.43
2023-09-27T00:16:34.601Z,480.33
2023-09-27T00:16:45.616Z,480.28
2023-09-27T00:16:57.654Z,480.25
2023-09-27T00:17:08.590Z,480.23
2023-09-27T00:17:20.585Z,480.19
2023-09-27T00:17:32.658Z,480.18
2023-09-27T00:17:44.674Z,480.14
2023-09-27T00:17:55.744Z,480.09
2023-09-27T00:18:07.564Z,480.05
2023-09-27T00:18:18.636Z,480.04
2023-09-27T00:18:29.574Z,480.05
2023-09-27T00:18:40.562Z,480.01
2023-09-27T00:18:51.553Z,479.99
2023-09-27T00:19:02.538Z,480.01
2023-09-27T00:19:13.527Z,480.01
2023-09-27T00:19:24.634Z,480.04
2023-09-27T00:19:36.599Z,480.02
2023-09-27T00:19:48.568Z,480.03
2023-09-27T00:19:59.553Z,480.03
2023-09-27T00:20:10.607Z,480.06
2023-09-27T00:20:21.586Z,480.10
2023-09-27T00:20:32.607Z,480.12
2023-09-27T00:20:43.630Z,480.13
2023-09-27T00:20:55.599Z,480.18
2023-09-27T00:21:07.558Z,480.23
2023-09-27T00:21:18.556Z,480.26
2023-09-27T00:21:29.565Z,480.30
2023-09-27T00:21:40.570Z,480.33
2023-09-27T00:21:51.548Z,480.40
2023-09-27T00:22:02.561Z,480.44
2023-09-27T00:22:13.578Z,480.50
2023-09-27T00:22:24.580Z,480.55
2023-09-27T00:22:35.581Z,480.53
2023-09-27T00:22:47.616Z,480.61
2023-09-27T00:22:58.606Z,480.63
2023-09-27T00:23:09.584Z,480.69
2023-09-27T00:23:21.624Z,480.72
2023-09-27T00:23:32.677Z,480.78
2023-09-27T00:23:44.561Z,480.85
2023-09-27T00:23:55.548Z,480.90
2023-09-27T00:24:06.562Z,480.94
2023-09-27T00:24:17.586Z,480.97
2023-09-27T00:24:28.604Z,481.01
2023-09-27T00:24:40.603Z,481.06
2023-09-27T00:24:52.562Z,481.08
2023-09-27T00:25:03.562Z,481.13
2023-09-27T00:25:14.538Z,481.16
2023-09-27T00:25:25.555Z,481.20
2023-09-27T00:25:36.571Z,481.23
2023-09-27T00:25:47.550Z,481.28
2023-09-27T00:25:58.644Z,481.30
2023-09-27T00:26:09.615Z,481.28
2023-09-27T00:26:21.611Z,481.27
2023-09-27T00:26:33.574Z,481.24
2023-09-27T00:26:44.570Z,481.22
2023-09-27T00:26:55.563Z,481.21
2023-09-27T00:27:06.564Z,481.19
2023-09-27T00:27:17.563Z,481.16
2023-09-27T00:27:28.545Z,481.10
2023-09-27T00:27:39.569Z,481.05
2023-09-27T00:27:50.559Z,481.04
2023-09-27T00:28:01.558Z,480.97
2023-09-27T00:28:12.553Z,480.92
2023-09-27T00:28:23.560Z,480.88
2023-09-27T00:28:34.534Z,480.84
2023-09-27T00:28:45.625Z,480.74
2023-09-27T00:28:57.607Z,480.67
2023-09-27T00:29:09.620Z,480.59
2023-09-27T00:29:21.588Z,480.57
2023-09-27T00:29:32.643Z,480.47
2023-09-27T00:29:43.530Z,480.41
2023-09-27T00:29:54.538Z,480.31
2023-09-27T00:30:05.624Z,480.21
2023-09-27T00:30:17.693Z,480.13
2023-09-27T00:30:28.604Z,480.02
2023-09-27T00:30:40.562Z,479.92
2023-09-27T00:30:51.571Z,479.81
2023-09-27T00:31:02.560Z,479.74
2023-09-27T00:31:13.594Z,479.67
2023-09-27T00:31:25.631Z,479.55
2023-09-27T00:31:37.593Z,479.44
2023-09-27T00:31:49.624Z,479.36
2023-09-27T00:32:00.687Z,479.26
2023-09-27T00:32:11.616Z,479.18
2023-09-27T00:32:22.576Z,479.06
2023-09-27T00:32:33.734Z,478.93
2023-09-27T00:32:45.792Z,478.81
2023-09-27T00:32:57.675Z,478.72
2023-09-27T00:33:09.656Z,478.63
2023-09-27T00:33:20.662Z,478.55
2023-09-27T00:33:32.749Z,478.44
2023-09-27T00:33:44.577Z,478.41
2023-09-27T00:33:55.576Z,478.29
2023-09-27T00:34:06.569Z,478.19
2023-09-27T00:34:17.558Z,478.13
2023-09-27T00:34:28.619Z,478.13
2023-09-27T00:34:40.572Z,478.14
2023-09-27T00:34:51.611Z,478.15
2023-09-27T00:35:04.666Z,478.15
2023-09-27T00:35:15.739Z,478.17
2023-09-27T00:35:27.640Z,478.20
2023-09-27T00:35:39.610Z,478.28
2023-09-27T00:35:50.646Z,478.32
2023-09-27T00:36:02.623Z,478.38
2023-09-27T00:36:14.612Z,478.44
2023-09-27T00:36:26.598Z,478.52
2023-09-27T00:36:37.601Z,478.62
2023-09-27T00:36:49.565Z,478.71
2023-09-27T00:37:00.563Z,478.81
2023-09-27T00:37:11.550Z,478.89
2023-09-27T00:37:22.543Z,478.96
2023-09-27T00:37:33.626Z,479.04
2023-09-27T00:37:45.605Z,479.10
2023-09-27T00:37:57.587Z,479.18
2023-09-27T00:38:08.608Z,479.25
2023-09-27T00:38:19.615Z,479.33
2023-09-27T00:38:30.649Z,479.37
2023-09-27T00:38:42.615Z,479.38
2023-09-27T00:38:54.731Z,479.40
2023-09-27T00:39:06.566Z,479.43
2023-09-27T00:39:17.552Z,479.44
2023-09-27T00:39:28.535Z,479.47
2023-09-27T00:39:39.619Z,479.51
2023-09-27T00:39:51.617Z,479.52
2023-09-27T00:40:03.584Z,479.51
2023-09-27T00:40:14.599Z,479.49
2023-09-27T00:40:25.593Z,479.47
2023-09-27T00:40:37.598Z,479.50
2023-09-27T00:40:49.582Z,479.47
2023-09-27T00:41:00.552Z,479.47
2023-09-27T00:41:11.618Z,479.49
2023-09-27T00:41:22.553Z,479.51
2023-09-27T00:41:33.574Z,479.54
2023-09-27T00:41:45.580Z,479.55
2023-09-27T00:41:56.592Z,479.57
2023-09-27T00:42:07.587Z,479.58
2023-09-27T00:42:18.581Z,479.63
2023-09-27T00:42:29.607Z,479.66
2023-09-27T00:42:40.594Z,479.70
2023-09-27T00:42:52.587Z,479.77
2023-09-27T00:43:03.580Z,479.79
2023-09-27T00:43:14.568Z,479.83
2023-09-27T00:43:25.569Z,479.87
2023-09-27T00:43:36.576Z,479.90
2023-09-27T00:43:47.571Z,479.96
2023-09-27T00:43:58.581Z,479.98
2023-09-27T00:44:09.639Z,480.05
2023-09-27T00:44:21.603Z,480.06
2023-09-27T00:44:32.605Z,480.08
2023-09-27T00:44:44.593Z,480.12
2023-09-27T00:44:55.579Z,480.12
2023-09-27T00:45:06.564Z,480.13
2023-09-27T00:45:17.559Z,480.15
2023-09-27T00:45:28.541Z,480.14
2023-09-27T00:45:39.557Z,480.16
2023-09-27T00:45:50.582Z,480.15
2023-09-27T00:46:01.658Z,480.11
2023-09-27T00:46:12.663Z,480.09
2023-09-27T00:46:23.605Z,480.06
2023-09-27T00:46:34.593Z,480.02
2023-09-27T00:46:45.621Z,479.95
2023-09-27T00:46:57.613Z,479.90
2023-09-27T00:47:09.598Z,479.85
2023-09-27T00:47:21.614Z,479.79
2023-09-27T00:47:32.595Z,479.75
2023-09-27T00:47:44.569Z,479.68
2023-09-27T00:47:55.584Z,479.61
2023-09-27T00:48:06.612Z,479.56
2023-09-27T00:48:18.655Z,479.49
2023-09-27T00:48:30.638Z,479.42
2023-09-27T00:48:41.574Z,479.35
2023-09-27T00:48:52.744Z,479.32
2023-09-27T00:49:03.602Z,479.30
2023-09-27T00:49:15.565Z,479.26
2023-09-27T00:49:26.563Z,479.21
2023-09-27T00:49:37.566Z,479.18
2023-09-27T00:49:48.586Z,479.15
2023-09-27T00:49:59.621Z,479.12
2023-09-27T00:50:10.769Z,479.10
2023-09-27T00:50:21.681Z,479.11
2023-09-27T00:50:33.889Z,479.08
2023-09-27T00:50:45.560Z,479.10
2023-09-27T00:50:56.559Z,479.07
2023-09-27T00:51:07.549Z,479.07
2023-09-27T00:51:18.544Z,479.08
2023-09-27T00:51:29.587Z,479.10
2023-09-27T00:51:40.573Z,479.11
2023-09-27T00:51:52.600Z,479.15
2023-09-27T00:52:03.585Z,479.18
2023-09-27T00:52:15.601Z,479.24
2023-09-27T00:52:26.597Z,479.27
2023-09-27T00:52:38.561Z,479.29
2023-09-27T00:52:49.672Z,479.35
2023-09-27T00:53:00.670Z,479.37
2023-09-27T00:53:11.625Z,479.41
2023-09-27T00:53:23.768Z,479.47
2023-09-27T00:53:34.584Z,479.49
2023-09-27T00:53:45.591Z,479.51
2023-09-27T00:53:56.588Z,479.51
2023-09-27T00:54:07.568Z,479.56
2023-09-27T00:54:18.556Z,479.58
2023-09-27T00:54:29.582Z,479.61
2023-09-27T00:54:40.576Z,479.63
2023-09-27T00:54:51.586Z,479.62
2023-09-27T00:55:02.602Z,479.60
2023-09-27T00:55:14.575Z,479.59
2023-09-27T00:55:25.590Z,479.58
2023-09-27T00:55:36.591Z,479.55
2023-09-27T00:55:47.571Z,479.51
2023-09-27T00:55:58.596Z,479.45
2023-09-27T00:56:10.656Z,479.40
2023-09-27T00:56:21.594Z,479.33
2023-09-27T00:56:33.599Z,479.27
2023-09-27T00:56:44.586Z,479.22
2023-09-27T00:56:55.584Z,479.16
2023-09-27T00:57:06.601Z,479.09
2023-09-27T00:57:18.558Z,479.06
2023-09-27T00:57:29.553Z,478.99
2023-09-27T00:57:40.562Z,478.93
2023-09-27T00:57:51.599Z,478.88
2023-09-27T00:58:02.584Z,478.83
2023-09-27T00:58:13.578Z,478.78
2023-09-27T00:58:24.568Z,478.73
2023-09-27T00:58:35.564Z,478.70
2023-09-27T00:58:46.567Z,478.67
2023-09-27T00:58:58.603Z,478.68
2023-09-27T00:59:09.560Z,478.64
2023-09-27T00:59:20.635Z,478.64
2023-09-27T00:59:31.588Z,478.58
2023-09-27T00:59:42.552Z,478.57
2023-09-27T00:59:53.573Z,478.54
2023-09-27T01:00:04.539Z,478.53
2023-09-27T01:00:15.573Z,478.51
2023-09-27T01:00:26.557Z,478.47
2023-09-27T01:00:37.587Z,478.48
2023-09-27T01:00:49.598Z,478.50
2023-09-27T01:01:01.592Z,478.52
2023-09-27T01:01:13.601Z,478.53
2023-09-27T01:01:24.609Z,478.57
2023-09-27T01:01:36.656Z,478.57
2023-09-27T01:01:47.566Z,478.57
2023-09-27T01:01:58.673Z,478.58
2023-09-27T01:02:09.660Z,478.65
2023-09-27T01:02:21.638Z,478.71
2023-09-27T01:02:32.669Z,478.77
2023-09-27T01:02:43.693Z,478.77
2023-09-27T01:02:55.643Z,478.79
2023-09-27T01:03:06.636Z,478.86
2023-09-27T01:03:18.621Z,478.90
2023-09-27T01:03:29.623Z,478.96
2023-09-27T01:03:40.579Z,479.03
2023-09-27T01:03:51.573Z,479.07
2023-09-27T01:04:02.568Z,479.12
2023-09-27T01:04:13.573Z,479.16
2023-09-27T01:04:24.567Z,479.19
2023-09-27T01:04:35.548Z,479.22
2023-09-27T01:04:46.543Z,479.28
2023-09-27T01:04:57.580Z,479.31
2023-09-27T01:05:09.637Z,479.35
2023-09-27T01:05:20.701Z,479.38
2023-09-27T01:05:31.637Z,479.44
2023-09-27T01:05:43.734Z,479.46
2023-09-27T01:05:55.641Z,479.47
2023-09-27T01:06:06.663Z,479.51
2023-09-27T01:06:18.619Z,479.49
2023-09-27T01:06:29.534Z,479.53
2023-09-27T01:06:40.633Z,479.57
2023-09-27T01:06:52.581Z,479.56
2023-09-27T01:07:04.562Z,479.62
2023-09-27T01:07:15.541Z,479.61
2023-09-27T01:07:26.562Z,479.60
2023-09-27T01:07:37.602Z,479.62
2023-09-27T01:07:48.586Z,479.61
2023-09-27T01:08:00.631Z,479.58
2023-09-27T01:08:12.615Z,479.56
2023-09-27T01:08:24.616Z,479.54
2023-09-27T01:08:35.587Z,479.53
2023-09-27T01:08:46.595Z,479.58
2023-09-27T01:08:57.587Z,479.58
2023-09-27T01:09:08.585Z,479.56
2023-09-27T01:09:19.568Z,479.55
2023-09-27T01:09:30.562Z,479.56
2023-09-27T01:09:41.554Z,479.52
2023-09-27T01:09:52.545Z,479.51
2023-09-27T01:10:03.546Z,479.53
2023-09-27T01:10:14.636Z,479.55
2023-09-27T01:10:26.586Z,479.53
2023-09-27T01:10:37.593Z,479.54
2023-09-27T01:10:48.571Z,479.52
2023-09-27T01:11:00.598Z,479.55
2023-09-27T01:11:11.603Z,479.58
2023-09-27T01:11:23.627Z,479.57
2023-09-27T01:11:34.588Z,479.56
2023-09-27T01:11:46.564Z,479.56
2023-09-27T01:11:57.547Z,479.60
2023-09-27T01:12:08.623Z,479.62
2023-09-27T01:12:20.568Z,479.61
2023-09-27T01:12:31.601Z,479.66
2023-09-27T01:12:43.658Z,479.69
2023-09-27T01:12:54.608Z,479.73
2023-09-27T01:13:05.678Z,479.80
2023-09-27T01:13:17.611Z,479.83
2023-09-27T01:13:28.547Z,479.85
2023-09-27T01:13:39.571Z,479.91
2023-09-27T01:13:50.602Z,479.95
2023-09-27T01:14:01.561Z,479.99
2023-09-27T01:14:13.575Z,480.05
2023-09-27T01:14:25.621Z,480.13
2023-09-27T01:14:37.606Z,480.19
2023-09-27T01:14:49.578Z,480.27
2023-09-27T01:15:00.590Z,480.37
2023-09-27T01:15:12.602Z,480.42
2023-09-27T01:15:24.567Z,480.46
2023-09-27T01:15:35.577Z,480.53
2023-09-27T01:15:46.639Z,480.60
2023-09-27T01:15:58.624Z,480.68
2023-09-27T01:16:10.629Z,480.77
2023-09-27T01:16:22.735Z,480.82
2023-09-27T01:16:34.638Z,480.88
2023-09-27T01:16:46.623Z,480.94
2023-09-27T01:16:58.618Z,481.02
2023-09-27T01:17:09.596Z,481.05
2023-09-27T01:17:20.659Z,481.09
2023-09-27T01:17:31.718Z,481.13
2023-09-27T01:17:42.705Z,481.17
2023-09-27T01:17:54.639Z,481.20
2023-09-27T01:18:06.648Z,481.26
2023-09-27T01:18:17.571Z,481.28
2023-09-27T01:18:28.576Z,481.34
2023-09-27T01:18:39.624Z,481.39
2023-09-27T01:18:50.632Z,481.40
2023-09-27T01:19:02.570Z,481.41
2023-09-27T01:19:14.583Z,481.49
2023-09-27T01:19:25.550Z,481.54
2023-09-27T01:19:36.561Z,481.54
2023-09-27T01:19:47.567Z,481.57
2023-09-27T01:19:58.609Z,481.64
2023-09-27T01:20:09.595Z,481.67
2023-09-27T01:20:20.611Z,481.75
2023-09-27T01:20:31.577Z,481.79
2023-09-27T01:20:42.571Z,481.81
2023-09-27T01:20:53.575Z,481.87
2023-09-27T01:21:04.575Z,481.93
2023-09-27T01:21:15.574Z,481.97
2023-09-27T01:21:26.562Z,481.99
2023-09-27T01:21:37.548Z,482.09
2023-09-27T01:21:48.539Z,482.13
2023-09-27T01:21:59.541Z,482.17
2023-09-27T01:22:10.570Z,482.21
2023-09-27T01:22:21.590Z,482.25
2023-09-27T01:22:32.582Z,482.28
2023-09-27T01:22:43.605Z,482.32
2023-09-27T01:22:55.640Z,482.34
2023-09-27T01:23:06.620Z,482.35
2023-09-27T01:23:17.627Z,482.38
2023-09-27T01:23:29.736Z,482.39
2023-09-27T01:23:41.605Z,482.39
2023-09-27T01:23:53.562Z,482.39
2023-09-27T01:24:04.554Z,482.37
2023-09-27T01:24:15.629Z,482.37
2023-09-27T01:24:27.586Z,482.38
2023-09-27T01:24:38.585Z,482.38
2023-09-27T01:24:49.585Z,482.37
2023-09-27T01:25:00.599Z,482.35
2023-09-27T01:25:12.566Z,482.34
2023-09-27T01:25:23.561Z,482.34
2023-09-27T01:25:34.548Z,482.34
2023-09-27T01:25:45.547Z,482.33
2023-09-27T01:25:56.572Z,482.32
2023-09-27T01:26:07.667Z,482.32
2023-09-27T01:26:18.588Z,482.32
2023-09-27T01:26:30.582Z,482.29
2023-09-27T01:26:41.575Z,482.34
2023-09-27T01:26:52.569Z,482.31
2023-09-27T01:27:03.552Z,482.28
2023-09-27T01:27:15.566Z,482.27
2023-09-27T01:27:26.569Z,482.30
2023-09-27T01:27:37.551Z,482.27
2023-09-27T01:27:48.554Z,482.25
2023-09-27T01:27:59.535Z,482.26
2023-09-27T01:28:10.629Z,482.24
2023-09-27T01:28:22.603Z,482.22
2023-09-27T01:28:34.568Z,482.22
2023-09-27T01:28:45.547Z,482.20
2023-09-27T01:28:56.761Z,482.16
2023-09-27T01:29:07.621Z,482.12
2023-09-27T01:29:19.622Z,482.09
2023-09-27T01:29:31.614Z,482.07
2023-09-27T01:29:42.548Z,482.07
2023-09-27T01:29:53.539Z,482.05
2023-09-27T01:30:04.643Z,482.01
2023-09-27T01:30:16.602Z,481.94
2023-09-27T01:30:28.612Z,481.96
2023-09-27T01:30:40.592Z,481.90
2023-09-27T01:30:51.597Z,481.86
2023-09-27T01:31:03.569Z,481.83
2023-09-27T01:31:14.650Z,481.78
2023-09-27T01:31:25.654Z,481.72
2023-09-27T01:31:36.622Z,481.71
2023-09-27T01:31:47.584Z,481.66
2023-09-27T01:31:59.661Z,481.66
2023-09-27T01:32:11.587Z,481.57
2023-09-27T01:32:23.594Z,481.52
2023-09-27T01:32:35.622Z,481.49
2023-09-27T01:32:46.662Z,481.46
2023-09-27T01:32:57.613Z,481.44
2023-09-27T01:33:08.663Z,481.41
2023-09-27T01:33:20.623Z,481.39
2023-09-27T01:33:31.537Z,481.36
2023-09-27T01:33:42.534Z,481.35
2023-09-27T01:33:53.561Z,481.31
2023-09-27T01:34:04.573Z,481.26
2023-09-27T01:34:15.567Z,481.26
2023-09-27T01:34:26.585Z,481.23
2023-09-27T01:34:37.573Z,481.23
2023-09-27T01:34:48.579Z,481.21
2023-09-27T01:34:59.597Z,481.19
2023-09-27T01:35:11.636Z,481.15
2023-09-27T01:35:22.604Z,481.16
2023-09-27T01:35:34.603Z,481.11
2023-09-27T01:35:45.559Z,481.08
2023-09-27T01:35:56.569Z,481.05
2023-09-27T01:36:07.557Z,481.02
2023-09-27T01:36:18.543Z,481.01
2023-09-27T01:36:29.655Z,480.99
2023-09-27T01:36:41.565Z,480.97
2023-09-27T01:36:52.549Z,480.95
2023-09-27T01:37:03.626Z,480.92
2023-09-27T01:37:15.599Z,480.85
2023-09-27T01:37:26.577Z,480.81
2023-09-27T01:37:37.565Z,480.74
2023-09-27T01:37:48.549Z,480.69
2023-09-27T01:37:59.626Z,480.70
2023-09-27T01:38:10.675Z,480.72
2023-09-27T01:38:21.713Z,480.65
2023-09-27T01:38:33.608Z,480.67
2023-09-27T01:38:45.576Z,480.63
2023-09-27T01:38:56.585Z,480.66
2023-09-27T01:39:07.574Z,480.69
2023-09-27T01:39:18.543Z,480.67
2023-09-27T01:39:30.567Z,480.71
2023-09-27T01:39:41.548Z,480.69
2023-09-27T01:39:52.554Z,480.69
2023-09-27T01:40:03.561Z,480.70
2023-09-27T01:40:14.565Z,480.71
2023-09-27T01:40:25.568Z,480.72
2023-09-27T01:40:36.571Z,480.75
2023-09-27T01:40:47.588Z,480.77
2023-09-27T01:40:58.623Z,480.78
2023-09-27T01:41:09.551Z,480.81
2023-09-27T01:41:20.642Z,480.88
2023-09-27T01:41:31.607Z,480.89
2023-09-27T01:41:42.561Z,480.95
2023-09-27T01:41:53.565Z,481.00
2023-09-27T01:42:04.558Z,481.06
2023-09-27T01:42:15.523Z,481.11
2023-09-27T01:42:26.533Z,481.12
2023-09-27T01:42:37.629Z,481.21
2023-09-27T01:42:49.588Z,481.26
2023-09-27T01:43:00.589Z,481.33
2023-09-27T01:43:11.585Z,481.34
2023-09-27T01:43:22.572Z,481.38
2023-09-27T01:43:33.567Z,481.44
2023-09-27T01:43:44.565Z,481.51
2023-09-27T01:43:55.601Z,481.53
2023-09-27T01:44:07.612Z,481.58
2023-09-27T01:44:18.569Z,481.62
2023-09-27T01:44:29.594Z,481.66
2023-09-27T01:44:41.580Z,481.72
2023-09-27T01:44:52.566Z,481.74
2023-09-27T01:45:03.566Z,481.81
2023-09-27T01:45:14.568Z,481.82
2023-09-27T01:45:25.570Z,481.86
2023-09-27T01:45:36.683Z,481.92
2023-09-27T01:45:47.666Z,481.95
2023-09-27T01:45:58.619Z,481.98
2023-09-27T01:46:09.698Z,482.01
2023-09-27T01:46:20.604Z,482.04
2023-09-27T01:46:32.568Z,482.05
2023-09-27T01:46:43.553Z,482.08
2023-09-27T01:46:54.575Z,482.11
2023-09-27T01:47:05.604Z,482.15
2023-09-27T01:47:17.663Z,482.13
2023-09-27T01:47:28.619Z,482.12
2023-09-27T01:47:39.701Z,482.09
2023-09-27T01:47:51.582Z,482.08
2023-09-27T01:48:03.615Z,482.01
2023-09-27T01:48:15.623Z,481.96
2023-09-27T01:48:27.593Z,481.94
2023-09-27T01:48:38.580Z,481.87
2023-09-27T01:48:49.589Z,481.84
2023-09-27T01:49:00.579Z,481.79
2023-09-27T01:49:11.572Z,481.75
2023-09-27T01:49:22.551Z,481.69
2023-09-27T01:49:33.632Z,481.61
2023-09-27T01:49:45.575Z,481.52
2023-09-27T01:49:56.609Z,481.41
2023-09-27T01:50:07.599Z,481.29
2023-09-27T01:50:18.647Z,481.19
2023-09-27T01:50:30.635Z,481.10
2023-09-27T01:50:42.595Z,481.00
2023-09-27T01:50:53.588Z,480.90
2023-09-27T01:51:04.582Z,480.83
2023-09-27T01:51:15.572Z,480.75
2023-09-27T01:51:26.578Z,480.69
2023-09-27T01:51:38.594Z,480.60
2023-09-27T01:51:50.577Z,480.52
2023-09-27T01:52:01.591Z,480.47
2023-09-27T01:52:12.587Z,480.41
2023-09-27T01:52:23.583Z,480.33
2023-09-27T01:52:34.562Z,480.26
2023-09-27T01:52:46.572Z,480.21
2023-09-27T01:52:57.573Z,480.17
2023-09-27T01:53:09.628Z,480.13
2023-09-27T01:53:20.570Z,480.11
2023-09-27T01:53:31.634Z,480.10
2023-09-27T01:53:42.577Z,480.09
2023-09-27T01:53:53.576Z,480.06
2023-09-27T01:54:04.580Z,480.07
2023-09-27T01:54:15.566Z,480.05
2023-09-27T01:54:26.549Z,480.04
2023-09-27T01:54:37.579Z,480.05
2023-09-27T01:54:49.574Z,480.03
2023-09-27T01:55:00.585Z,480.02
2023-09-27T01:55:11.586Z,480.00
2023-09-27T01:55:22.578Z,479.99
2023-09-27T01:55:33.579Z,480.00
2023-09-27T01:55:44.586Z,480.04
2023-09-27T01:55:56.581Z,480.05
2023-09-27T01:56:07.623Z,480.05
2023-09-27T01:56:19.614Z,480.06
2023-09-27T01:56:31.587Z,480.09
2023-09-27T01:56:43.581Z,480.10
2023-09-27T01:56:55.609Z,480.15
2023-09-27T01:57:07.561Z,480.20
2023-09-27T01:57:18.559Z,480.25
2023-09-27T01:57:29.558Z,480.31
2023-09-27T01:57:40.542Z,480.35
2023-09-27T01:57:51.558Z,480.41
2023-09-27T01:58:02.576Z,480.48
2023-09-27T01:58:13.579Z,480.52
2023-09-27T01:58:24.563Z,480.59
2023-09-27T01:58:35.583Z,480.67
2023-09-27T01:58:47.575Z,480.73
2023-09-27T01:58:58.588Z,480.75
2023-09-27T01:59:10.695Z,480.77
2023-09-27T01:59:21.648Z,480.83
2023-09-27T01:59:32.661Z,480.88
2023-09-27T01:59:43.549Z,480.97
2023-09-27T01:59:54.552Z,480.99
2023-09-27T02:00:05.627Z,481.03
2023-09-27T02:00:17.602Z,481.08
2023-09-27T02:00:28.596Z,481.05
2023-09-27T02:00:39.580Z,481.08
2023-09-27T02:00:50.604Z,481.15
2023-09-27T02:01:02.624Z,481.16
2023-09-27T02:01:13.597Z,481.16
2023-09-27T02:01:25.627Z,481.13
2023-09-27T02:01:37.696Z,481.14
2023-09-27T02:01:49.617Z,481.11
2023-09-27T02:02:00.606Z,481.09
2023-09-27T02:02:12.619Z,481.03
2023-09-27T02:02:23.582Z,481.00
2023-09-27T02:02:34.653Z,480.96
2023-09-27T02:02:45.610Z,480.91
2023-09-27T02:02:56.751Z,480.87
2023-09-27T02:03:08.685Z,480.82
2023-09-27T02:03:20.698Z,480.77
2023-09-27T02:03:32.697Z,480.68
2023-09-27T02:03:43.671Z,480.64
2023-09-27T02:03:54.691Z,480.57
2023-09-27T02:04:06.688Z,480.55
2023-09-27T02:04:17.613Z,480.49
2023-09-27T02:04:29.561Z,480.42
2023-09-27T02:04:40.635Z,480.36
2023-09-27T02:04:51.579Z,480.32
2023-09-27T02:05:02.602Z,480.28
2023-09-27T02:05:13.667Z,480.24
2023-09-27T02:05:24.677Z,480.20
2023-09-27T02:05:36.698Z,480.20
2023-09-27T02:05:48.691Z,480.17
2023-09-27T02:06:00.637Z,480.15
2023-09-27T02:06:11.564Z,480.09
2023-09-27T02:06:22.547Z,480.07
2023-09-27T02:06:33.571Z,480.06
2023-09-27T02:06:44.562Z,480.04
2023-09-27T02:06:55.558Z,480.04
2023-09-27T02:07:06.552Z,480.05
2023-09-27T02:07:17.550Z,480.04
2023-09-27T02:07:28.554Z,480.04
2023-09-27T02:07:39.550Z,480.06
2023-09-27T02:07:50.560Z,480.08
2023-09-27T02:08:01.598Z,480.09
2023-09-27T02:08:12.614Z,480.07
2023-09-27T02:08:24.645Z,480.06
2023-09-27T02:08:36.646Z,480.10
2023-09-27T02:08:47.583Z,480.14
2023-09-27T02:08:58.597Z,480.17
2023-09-27T02:09:09.592Z,480.18
2023-09-27T02:09:20.580Z,480.21
2023-09-27T02:09:31.576Z,480.25
2023-09-27T02:09:42.584Z,480.29
2023-09-27T02:09:53.575Z,480.29
2023-09-27T02:10:04.586Z,480.30
2023-09-27T02:10:15.596Z,480.35
2023-09-27T02:10:27.586Z,480.44
2023-09-27T02:10:38.583Z,480.48
2023-09-27T02:10:49.572Z,480.51
2023-09-27T02:11:00.593Z,480.51
2023-09-27T02:11:12.585Z,480.54
2023-09-27T02:11:23.581Z,480.59
2023-09-27T02:11:35.612Z,480.62
2023-09-27T02:11:46.625Z,480.61
2023-09-27T02:11:58.578Z,480.65
2023-09-27T02:12:09.559Z,480.62
2023-09-27T02:12:20.543Z,480.66
2023-09-27T02:12:31.569Z,480.68
2023-09-27T02:12:43.572Z,480.68
2023-09-27T02:12:55.591Z,480.68
2023-09-27T02:13:06.558Z,480.67
2023-09-27T02:13:17.553Z,480.66
2023-09-27T02:13:28.576Z,480.68
2023-09-27T02:13:39.557Z,480.67
2023-09-27T02:13:50.557Z,480.66
2023-09-27T02:14:01.560Z,480.66
2023-09-27T02:14:12.609Z,480.63
2023-09-27T02:14:23.701Z,480.61
2023-09-27T02:14:35.625Z,480.61
2023-09-27T02:14:47.603Z,480.59
2023-09-27T02:14:59.568Z,480.57
2023-09-27T02:15:10.579Z,480.53
2023-09-27T02:15:21.594Z,480.51
2023-09-27T02:15:32.578Z,480.45
2023-09-27T02:15:43.582Z,480.44
2023-09-27T02:15:55.657Z,480.38
2023-09-27T02:16:06.674Z,480.37
2023-09-27T02:16:17.602Z,480.32
2023-09-27T02:16:29.597Z,480.25
2023-09-27T02:16:41.566Z,480.21
2023-09-27T02:16:52.650Z,480.15
2023-09-27T02:17:03.590Z,480.11
2023-09-27T02:17:14.570Z,480.04
2023-09-27T02:17:25.623Z,479.98
2023-09-27T02:17:36.683Z,479.92
2023-09-27T02:17:47.618Z,479.87
2023-09-27T02:17:59.659Z,479.81
2023-09-27T02:18:10.591Z,479.75
2023-09-27T02:18:22.580Z,479.72
2023-09-27T02:18:33.610Z,479.65
2023-09-27T02:18:44.605Z,479.60
2023-09-27T02:18:55.808Z,479.58
2023-09-27T02:19:06.584Z,479.50
2023-09-27T02:19:17.593Z,479.45
2023-09-27T02:19:28.614Z,479.42
2023-09-27T02:19:40.583Z,479.36
2023-09-27T02:19:51.622Z,479.32
2023-09-27T02:20:03.655Z,479.25
2023-09-27T02:20:14.624Z,479.20
2023-09-27T02:20:25.641Z,479.18
2023-09-27T02:20:36.637Z,479.13
2023-09-27T02:20:48.595Z,479.09
2023-09-27T02:21:00.581Z,479.10